sensor_id;sensor_type;location;lat;lon;timestamp;temperature;humidity
63051;SHT30;49136;47.416;19.402;2023-11-19T00:00:15;-1.84;99.99
63051;SHT30;49136;47.416;19.402;2023-11-19T00:02:41;-1.82;99.99
63051;SHT30;49136;47.416;19.402;2023-11-19T00:05:07;-1.78;99.99
63051;SHT30;49136;47.416;19.402;2023-11-19T00:07:37;-1.81;99.99
63051;SHT30;49136;47.416;19.402;2023-11-19T00:10:08;-1.78;99.99
63051;SHT30;49136;47.416;19.402;2023-11-19T00:12:39;-1.81;99.99
63051;SHT30;49136;47.416;19.402;2023-11-19T00:15:05;-1.80;99.99
63051;SHT30;49136;47.416;19.402;2023-11-19T00:17:32;-1.81;99.99
63051;SHT30;49136;47.416;19.402;2023-11-19T00:19:57;-1.84;99.99
63051;SHT30;49136;47.416;19.402;2023-11-19T00:22:22;-1.81;99.99
63051;SHT30;49136;47.416;19.402;2023-11-19T00:24:48;-1.74;99.99
63051;SHT30;49136;47.416;19.402;2023-11-19T00:27:13;-1.77;99.99
63051;SHT30;49136;47.416;19.402;2023-11-19T00:29:40;-1.80;99.99
63051;SHT30;49136;47.416;19.402;2023-11-19T00:32:05;-1.78;99.99
63051;SHT30;49136;47.416;19.402;2023-11-19T00:34:31;-1.80;99.99
63051;SHT30;49136;47.416;19.402;2023-11-19T00:36:57;-1.84;99.99
63051;SHT30;49136;47.416;19.402;2023-11-19T00:39:22;-1.84;99.99
63051;SHT30;49136;47.416;19.402;2023-11-19T00:41:48;-1.84;99.99
63051;SHT30;49136;47.416;19.402;2023-11-19T00:44:13;-1.78;99.99
63051;SHT30;49136;47.416;19.402;2023-11-19T00:46:39;-1.77;99.99
63051;SHT30;49136;47.416;19.402;2023-11-19T00:49:05;-1.82;99.99
63051;SHT30;49136;47.416;19.402;2023-11-19T00:51:30;-1.85;99.99
63051;SHT30;49136;47.416;19.402;2023-11-19T00:53:57;-1.87;99.99
63051;SHT30;49136;47.416;19.402;2023-11-19T00:56:22;-1.80;99.99
63051;SHT30;49136;47.416;19.402;2023-11-19T00:58:48;-1.80;99.99
63051;SHT30;49136;47.416;19.402;2023-11-19T01:01:13;-1.82;99.99
63051;SHT30;49136;47.416;19.402;2023-11-19T01:03:39;-1.82;99.99
63051;SHT30;49136;47.416;19.402;2023-11-19T01:06:05;-1.81;99.99
63051;SHT30;49136;47.416;19.402;2023-11-19T01:08:30;-1.73;99.99
63051;SHT30;49136;47.416;19.402;2023-11-19T01:10:55;-1.78;99.99
63051;SHT30;49136;47.416;19.402;2023-11-19T01:13:21;-1.84;99.99
63051;SHT30;49136;47.416;19.402;2023-11-19T01:15:46;-1.88;99.99
63051;SHT30;49136;47.416;19.402;2023-11-19T01:18:13;-1.90;99.99
63051;SHT30;49136;47.416;19.402;2023-11-19T01:20:38;-1.87;99.99
63051;SHT30;49136;47.416;19.402;2023-11-19T01:23:03;-1.88;99.99
63051;SHT30;49136;47.416;19.402;2023-11-19T01:25:29;-1.88;99.99
63051;SHT30;49136;47.416;19.402;2023-11-19T01:27:54;-1.91;99.99
63051;SHT30;49136;47.416;19.402;2023-11-19T01:30:22;-1.87;99.99
63051;SHT30;49136;47.416;19.402;2023-11-19T01:32:48;-1.88;99.99
63051;SHT30;49136;47.416;19.402;2023-11-19T01:35:13;-1.90;99.99
63051;SHT30;49136;47.416;19.402;2023-11-19T01:37:39;-1.94;99.99
63051;SHT30;49136;47.416;19.402;2023-11-19T01:40:05;-1.91;99.99
63051;SHT30;49136;47.416;19.402;2023-11-19T01:42:39;-1.90;99.99
63051;SHT30;49136;47.416;19.402;2023-11-19T01:45:06;-1.90;99.99
63051;SHT30;49136;47.416;19.402;2023-11-19T01:47:33;-1.91;99.99
63051;SHT30;49136;47.416;19.402;2023-11-19T01:50:00;-1.94;99.99
63051;SHT30;49136;47.416;19.402;2023-11-19T01:52:26;-1.98;99.99
63051;SHT30;49136;47.416;19.402;2023-11-19T01:54:53;-1.99;99.99
63051;SHT30;49136;47.416;19.402;2023-11-19T01:57:22;-1.99;99.99
63051;SHT30;49136;47.416;19.402;2023-11-19T01:59:49;-1.95;99.99
63051;SHT30;49136;47.416;19.402;2023-11-19T02:02:16;-1.95;99.99
63051;SHT30;49136;47.416;19.402;2023-11-19T02:04:46;-1.95;99.99
63051;SHT30;49136;47.416;19.402;2023-11-19T02:07:13;-1.90;99.99
63051;SHT30;49136;47.416;19.402;2023-11-19T02:09:42;-1.87;99.99
63051;SHT30;49136;47.416;19.402;2023-11-19T02:12:07;-1.90;99.99
63051;SHT30;49136;47.416;19.402;2023-11-19T02:14:33;-1.87;99.99
63051;SHT30;49136;47.416;19.402;2023-11-19T02:16:58;-1.81;99.99
63051;SHT30;49136;47.416;19.402;2023-11-19T02:19:24;-1.77;99.99
63051;SHT30;49136;47.416;19.402;2023-11-19T02:21:50;-1.78;99.99
63051;SHT30;49136;47.416;19.402;2023-11-19T02:24:17;-1.78;99.99
63051;SHT30;49136;47.416;19.402;2023-11-19T02:27:16;-1.77;99.99
63051;SHT30;49136;47.416;19.402;2023-11-19T02:29:46;-1.77;99.99
63051;SHT30;49136;47.416;19.402;2023-11-19T02:32:11;-1.77;99.99
63051;SHT30;49136;47.416;19.402;2023-11-19T02:34:38;-1.75;99.99
63051;SHT30;49136;47.416;19.402;2023-11-19T02:37:04;-1.78;99.99
63051;SHT30;49136;47.416;19.402;2023-11-19T02:39:30;-1.77;99.99
63051;SHT30;49136;47.416;19.402;2023-11-19T02:41:56;-1.84;99.99
63051;SHT30;49136;47.416;19.402;2023-11-19T02:44:22;-1.78;99.99
63051;SHT30;49136;47.416;19.402;2023-11-19T02:46:47;-1.82;99.99
63051;SHT30;49136;47.416;19.402;2023-11-19T02:49:14;-1.82;99.99
63051;SHT30;49136;47.416;19.402;2023-11-19T02:51:40;-1.84;99.99
63051;SHT30;49136;47.416;19.402;2023-11-19T02:54:05;-1.87;99.99
63051;SHT30;49136;47.416;19.402;2023-11-19T02:56:31;-1.88;99.99
63051;SHT30;49136;47.416;19.402;2023-11-19T02:59:00;-1.81;99.99
63051;SHT30;49136;47.416;19.402;2023-11-19T03:01:32;-1.85;99.99
63051;SHT30;49136;47.416;19.402;2023-11-19T03:04:01;-1.90;99.99
63051;SHT30;49136;47.416;19.402;2023-11-19T03:06:27;-1.92;99.99
63051;SHT30;49136;47.416;19.402;2023-11-19T03:08:54;-1.92;99.99
63051;SHT30;49136;47.416;19.402;2023-11-19T03:11:20;-1.87;99.99
63051;SHT30;49136;47.416;19.402;2023-11-19T03:13:46;-1.94;99.99
63051;SHT30;49136;47.416;19.402;2023-11-19T03:16:12;-1.91;99.99
63051;SHT30;49136;47.416;19.402;2023-11-19T03:18:38;-1.88;99.99
63051;SHT30;49136;47.416;19.402;2023-11-19T03:21:07;-1.85;99.99
63051;SHT30;49136;47.416;19.402;2023-11-19T03:23:33;-1.82;99.99
63051;SHT30;49136;47.416;19.402;2023-11-19T03:25:59;-1.78;99.99
63051;SHT30;49136;47.416;19.402;2023-11-19T03:28:28;-1.80;99.99
63051;SHT30;49136;47.416;19.402;2023-11-19T03:30:53;-1.84;99.99
63051;SHT30;49136;47.416;19.402;2023-11-19T03:33:19;-1.82;99.99
63051;SHT30;49136;47.416;19.402;2023-11-19T03:35:44;-1.84;99.99
63051;SHT30;49136;47.416;19.402;2023-11-19T03:38:11;-1.81;99.99
63051;SHT30;49136;47.416;19.402;2023-11-19T03:40:36;-1.82;99.99
63051;SHT30;49136;47.416;19.402;2023-11-19T03:43:02;-1.78;99.99
63051;SHT30;49136;47.416;19.402;2023-11-19T03:45:29;-1.74;99.99
63051;SHT30;49136;47.416;19.402;2023-11-19T03:47:55;-1.70;99.99
63051;SHT30;49136;47.416;19.402;2023-11-19T03:50:20;-1.70;99.99
63051;SHT30;49136;47.416;19.402;2023-11-19T03:52:47;-1.75;99.99
63051;SHT30;49136;47.416;19.402;2023-11-19T03:55:12;-1.73;99.99
63051;SHT30;49136;47.416;19.402;2023-11-19T03:57:38;-1.75;99.99
63051;SHT30;49136;47.416;19.402;2023-11-19T04:00:04;-1.71;99.99
63051;SHT30;49136;47.416;19.402;2023-11-19T04:02:36;-1.68;99.99
63051;SHT30;49136;47.416;19.402;2023-11-19T04:05:02;-1.71;99.99
63051;SHT30;49136;47.416;19.402;2023-11-19T04:07:29;-1.68;99.99
63051;SHT30;49136;47.416;19.402;2023-11-19T04:09:54;-1.67;99.99
63051;SHT30;49136;47.416;19.402;2023-11-19T04:12:20;-1.64;99.99
63051;SHT30;49136;47.416;19.402;2023-11-19T04:14:45;-1.64;99.99
63051;SHT30;49136;47.416;19.402;2023-11-19T04:17:10;-1.64;99.99
63051;SHT30;49136;47.416;19.402;2023-11-19T04:19:36;-1.64;99.99
63051;SHT30;49136;47.416;19.402;2023-11-19T04:22:01;-1.68;99.99
63051;SHT30;49136;47.416;19.402;2023-11-19T04:24:27;-1.68;99.99
63051;SHT30;49136;47.416;19.402;2023-11-19T04:26:53;-1.67;99.99
63051;SHT30;49136;47.416;19.402;2023-11-19T04:29:18;-1.66;99.99
63051;SHT30;49136;47.416;19.402;2023-11-19T04:31:44;-1.63;99.99
63051;SHT30;49136;47.416;19.402;2023-11-19T04:34:10;-1.66;99.99
63051;SHT30;49136;47.416;19.402;2023-11-19T04:36:36;-1.67;99.99
63051;SHT30;49136;47.416;19.402;2023-11-19T04:39:03;-1.67;99.99
63051;SHT30;49136;47.416;19.402;2023-11-19T04:41:33;-1.70;99.99
63051;SHT30;49136;47.416;19.402;2023-11-19T04:43:59;-1.68;99.99
63051;SHT30;49136;47.416;19.402;2023-11-19T04:46:24;-1.68;99.99
63051;SHT30;49136;47.416;19.402;2023-11-19T04:48:49;-1.67;99.99
63051;SHT30;49136;47.416;19.402;2023-11-19T04:51:15;-1.67;99.99
63051;SHT30;49136;47.416;19.402;2023-11-19T04:53:42;-1.70;99.99
63051;SHT30;49136;47.416;19.402;2023-11-19T04:56:08;-1.71;99.99
63051;SHT30;49136;47.416;19.402;2023-11-19T04:58:34;-1.68;99.99
63051;SHT30;49136;47.416;19.402;2023-11-19T05:01:01;-1.68;99.99
63051;SHT30;49136;47.416;19.402;2023-11-19T05:03:26;-1.70;99.99
63051;SHT30;49136;47.416;19.402;2023-11-19T05:05:52;-1.71;99.99
63051;SHT30;49136;47.416;19.402;2023-11-19T05:08:17;-1.66;99.99
63051;SHT30;49136;47.416;19.402;2023-11-19T05:10:43;-1.67;99.99
63051;SHT30;49136;47.416;19.402;2023-11-19T05:13:08;-1.67;99.99
63051;SHT30;49136;47.416;19.402;2023-11-19T05:15:33;-1.64;99.99
63051;SHT30;49136;47.416;19.402;2023-11-19T05:17:59;-1.60;99.99
63051;SHT30;49136;47.416;19.402;2023-11-19T05:20:24;-1.60;99.99
63051;SHT30;49136;47.416;19.402;2023-11-19T05:22:50;-1.53;99.99
63051;SHT30;49136;47.416;19.402;2023-11-19T05:25:16;-1.53;99.99
63051;SHT30;49136;47.416;19.402;2023-11-19T05:27:41;-1.49;99.99
63051;SHT30;49136;47.416;19.402;2023-11-19T05:30:07;-1.46;99.99
63051;SHT30;49136;47.416;19.402;2023-11-19T05:32:33;-1.46;99.99
63051;SHT30;49136;47.416;19.402;2023-11-19T05:34:58;-1.43;99.99
63051;SHT30;49136;47.416;19.402;2023-11-19T05:37:24;-1.40;99.99
63051;SHT30;49136;47.416;19.402;2023-11-19T05:39:50;-1.39;99.99
63051;SHT30;49136;47.416;19.402;2023-11-19T05:42:15;-1.32;99.99
63051;SHT30;49136;47.416;19.402;2023-11-19T05:44:41;-1.22;99.99
63051;SHT30;49136;47.416;19.402;2023-11-19T05:47:06;-1.18;99.99
63051;SHT30;49136;47.416;19.402;2023-11-19T05:49:32;-1.12;99.99
63051;SHT30;49136;47.416;19.402;2023-11-19T05:51:58;-1.11;99.99
63051;SHT30;49136;47.416;19.402;2023-11-19T05:54:24;-1.12;99.99
63051;SHT30;49136;47.416;19.402;2023-11-19T05:56:50;-1.16;99.99
63051;SHT30;49136;47.416;19.402;2023-11-19T05:59:19;-1.12;99.99
63051;SHT30;49136;47.416;19.402;2023-11-19T06:01:44;-1.12;99.99
63051;SHT30;49136;47.416;19.402;2023-11-19T06:04:09;-1.11;99.99
63051;SHT30;49136;47.416;19.402;2023-11-19T06:06:36;-1.12;99.99
63051;SHT30;49136;47.416;19.402;2023-11-19T06:09:01;-1.07;99.99
63051;SHT30;49136;47.416;19.402;2023-11-19T06:11:27;-1.03;99.99
63051;SHT30;49136;47.416;19.402;2023-11-19T06:13:53;-0.98;99.99
63051;SHT30;49136;47.416;19.402;2023-11-19T06:16:19;-0.98;99.99
63051;SHT30;49136;47.416;19.402;2023-11-19T06:18:44;-0.94;99.99
63051;SHT30;49136;47.416;19.402;2023-11-19T06:21:10;-0.93;99.99
63051;SHT30;49136;47.416;19.402;2023-11-19T06:23:36;-0.87;99.99
63051;SHT30;49136;47.416;19.402;2023-11-19T06:26:02;-0.86;99.99
63051;SHT30;49136;47.416;19.402;2023-11-19T06:28:27;-0.83;99.99
63051;SHT30;49136;47.416;19.402;2023-11-19T06:30:52;-0.79;99.99
63051;SHT30;49136;47.416;19.402;2023-11-19T06:33:18;-0.73;99.99
63051;SHT30;49136;47.416;19.402;2023-11-19T06:35:43;-0.73;99.99
63051;SHT30;49136;47.416;19.402;2023-11-19T06:38:09;-0.70;99.99
63051;SHT30;49136;47.416;19.402;2023-11-19T06:40:34;-0.66;99.99
63051;SHT30;49136;47.416;19.402;2023-11-19T06:43:03;-0.62;99.99
63051;SHT30;49136;47.416;19.402;2023-11-19T06:45:29;-0.55;99.99
63051;SHT30;49136;47.416;19.402;2023-11-19T06:47:55;-0.49;99.99
63051;SHT30;49136;47.416;19.402;2023-11-19T06:50:20;-0.41;99.99
63051;SHT30;49136;47.416;19.402;2023-11-19T06:52:46;-0.35;99.99
63051;SHT30;49136;47.416;19.402;2023-11-19T06:55:12;-0.25;99.99
63051;SHT30;49136;47.416;19.402;2023-11-19T06:57:38;-0.13;99.99
63051;SHT30;49136;47.416;19.402;2023-11-19T07:00:05;0.00;99.99
63051;SHT30;49136;47.416;19.402;2023-11-19T07:02:31;0.11;99.99
63051;SHT30;49136;47.416;19.402;2023-11-19T07:04:56;0.25;99.99
63051;SHT30;49136;47.416;19.402;2023-11-19T07:07:22;0.44;99.99
63051;SHT30;49136;47.416;19.402;2023-11-19T07:09:47;0.58;99.99
63051;SHT30;49136;47.416;19.402;2023-11-19T07:12:13;0.76;99.99
63051;SHT30;49136;47.416;19.402;2023-11-19T07:14:42;1.05;99.99
63051;SHT30;49136;47.416;19.402;2023-11-19T07:17:08;1.28;99.99
63051;SHT30;49136;47.416;19.402;2023-11-19T07:19:34;1.42;99.99
63051;SHT30;49136;47.416;19.402;2023-11-19T07:22:03;1.67;99.99
63051;SHT30;49136;47.416;19.402;2023-11-19T07:24:29;1.89;99.99
63051;SHT30;49136;47.416;19.402;2023-11-19T07:26:54;2.04;99.74
63051;SHT30;49136;47.416;19.402;2023-11-19T07:29:20;2.19;98.74
63051;SHT30;49136;47.416;19.402;2023-11-19T07:31:48;2.40;98.12
63051;SHT30;49136;47.416;19.402;2023-11-19T07:34:14;2.50;97.12
63051;SHT30;49136;47.416;19.402;2023-11-19T07:36:39;2.65;97.01
63051;SHT30;49136;47.416;19.402;2023-11-19T07:39:05;2.72;96.45
63051;SHT30;49136;47.416;19.402;2023-11-19T07:41:31;2.77;96.57
63051;SHT30;49136;47.416;19.402;2023-11-19T07:43:56;2.85;96.62
63051;SHT30;49136;47.416;19.402;2023-11-19T07:46:22;2.98;95.71
63051;SHT30;49136;47.416;19.402;2023-11-19T07:48:47;2.95;95.37
63051;SHT30;49136;47.416;19.402;2023-11-19T07:51:13;2.99;95.23
63051;SHT30;49136;47.416;19.402;2023-11-19T07:53:40;3.07;95.00
63051;SHT30;49136;47.416;19.402;2023-11-19T07:56:09;3.06;95.12
63051;SHT30;49136;47.416;19.402;2023-11-19T07:58:35;3.07;95.24
63051;SHT30;49136;47.416;19.402;2023-11-19T08:01:00;3.10;95.05
63051;SHT30;49136;47.416;19.402;2023-11-19T08:03:29;3.12;95.31
63051;SHT30;49136;47.416;19.402;2023-11-19T08:05:56;3.06;95.15
63051;SHT30;49136;47.416;19.402;2023-11-19T08:08:24;3.06;95.36
63051;SHT30;49136;47.416;19.402;2023-11-19T08:10:49;3.05;95.22
63051;SHT30;49136;47.416;19.402;2023-11-19T08:13:17;3.06;94.82
63051;SHT30;49136;47.416;19.402;2023-11-19T08:15:43;3.07;94.57
63051;SHT30;49136;47.416;19.402;2023-11-19T08:18:08;3.00;94.84
63051;SHT30;49136;47.416;19.402;2023-11-19T08:20:34;3.06;94.87
63051;SHT30;49136;47.416;19.402;2023-11-19T08:22:59;3.16;94.85
63051;SHT30;49136;47.416;19.402;2023-11-19T08:25:25;3.20;94.97
63051;SHT30;49136;47.416;19.402;2023-11-19T08:27:50;3.30;94.66
63051;SHT30;49136;47.416;19.402;2023-11-19T08:30:16;3.37;94.29
63051;SHT30;49136;47.416;19.402;2023-11-19T08:32:41;3.42;94.35
63051;SHT30;49136;47.416;19.402;2023-11-19T08:35:07;3.55;93.96
63051;SHT30;49136;47.416;19.402;2023-11-19T08:37:34;3.52;93.31
63051;SHT30;49136;47.416;19.402;2023-11-19T08:40:01;3.52;93.55
63051;SHT30;49136;47.416;19.402;2023-11-19T08:42:28;3.59;93.97
63051;SHT30;49136;47.416;19.402;2023-11-19T08:44:53;3.72;93.61
63051;SHT30;49136;47.416;19.402;2023-11-19T08:47:19;3.69;92.95
63051;SHT30;49136;47.416;19.402;2023-11-19T08:49:45;3.76;93.28
63051;SHT30;49136;47.416;19.402;2023-11-19T08:52:11;3.75;92.84
63051;SHT30;49136;47.416;19.402;2023-11-19T08:54:37;3.74;92.98
63051;SHT30;49136;47.416;19.402;2023-11-19T08:57:03;3.68;92.94
63051;SHT30;49136;47.416;19.402;2023-11-19T08:59:29;3.76;93.39
63051;SHT30;49136;47.416;19.402;2023-11-19T09:01:54;3.78;93.12
63051;SHT30;49136;47.416;19.402;2023-11-19T09:04:20;3.82;93.42
63051;SHT30;49136;47.416;19.402;2023-11-19T09:06:48;3.76;93.32
63051;SHT30;49136;47.416;19.402;2023-11-19T09:09:13;3.66;93.39
63051;SHT30;49136;47.416;19.402;2023-11-19T09:11:39;3.57;93.19
63051;SHT30;49136;47.416;19.402;2023-11-19T09:14:05;3.58;93.26
63051;SHT30;49136;47.416;19.402;2023-11-19T09:16:30;3.59;93.77
63051;SHT30;49136;47.416;19.402;2023-11-19T09:18:55;3.51;93.89
63051;SHT30;49136;47.416;19.402;2023-11-19T09:21:21;3.51;94.05
63051;SHT30;49136;47.416;19.402;2023-11-19T09:23:47;3.45;93.86
63051;SHT30;49136;47.416;19.402;2023-11-19T09:26:14;3.42;93.92
63051;SHT30;49136;47.416;19.402;2023-11-19T09:28:39;3.38;94.15
63051;SHT30;49136;47.416;19.402;2023-11-19T09:31:15;3.33;93.89
63051;SHT30;49136;47.416;19.402;2023-11-19T09:33:41;3.26;94.32
63051;SHT30;49136;47.416;19.402;2023-11-19T09:36:06;3.23;94.50
63051;SHT30;49136;47.416;19.402;2023-11-19T09:38:32;3.20;94.37
63051;SHT30;49136;47.416;19.402;2023-11-19T09:40:59;3.20;94.66
63051;SHT30;49136;47.416;19.402;2023-11-19T09:43:27;3.17;95.12
63051;SHT30;49136;47.416;19.402;2023-11-19T09:45:54;3.17;95.04
63051;SHT30;49136;47.416;19.402;2023-11-19T09:48:21;3.20;94.85
63051;SHT30;49136;47.416;19.402;2023-11-19T09:50:50;3.27;94.92
63051;SHT30;49136;47.416;19.402;2023-11-19T09:53:16;3.26;94.72
63051;SHT30;49136;47.416;19.402;2023-11-19T09:55:41;3.28;95.19
63051;SHT30;49136;47.416;19.402;2023-11-19T09:58:07;3.28;95.02
63051;SHT30;49136;47.416;19.402;2023-11-19T10:00:33;3.23;94.90
63051;SHT30;49136;47.416;19.402;2023-11-19T10:02:59;3.19;94.93
63051;SHT30;49136;47.416;19.402;2023-11-19T10:05:25;3.26;95.11
63051;SHT30;49136;47.416;19.402;2023-11-19T10:07:51;3.28;95.21
63051;SHT30;49136;47.416;19.402;2023-11-19T10:10:17;3.24;95.17
63051;SHT30;49136;47.416;19.402;2023-11-19T10:12:45;3.26;95.48
63051;SHT30;49136;47.416;19.402;2023-11-19T10:15:20;3.24;95.08
63051;SHT30;49136;47.416;19.402;2023-11-19T10:17:46;3.23;95.46
63051;SHT30;49136;47.416;19.402;2023-11-19T10:20:12;3.24;95.27
63051;SHT30;49136;47.416;19.402;2023-11-19T10:22:37;3.34;95.38
63051;SHT30;49136;47.416;19.402;2023-11-19T10:25:04;3.45;95.08
63051;SHT30;49136;47.416;19.402;2023-11-19T10:27:30;3.51;95.27
63051;SHT30;49136;47.416;19.402;2023-11-19T10:29:59;3.54;95.38
63051;SHT30;49136;47.416;19.402;2023-11-19T10:32:24;3.61;95.60
63051;SHT30;49136;47.416;19.402;2023-11-19T10:34:50;3.64;95.65
63051;SHT30;49136;47.416;19.402;2023-11-19T10:37:28;3.61;95.67
63051;SHT30;49136;47.416;19.402;2023-11-19T10:39:57;3.50;95.45
63051;SHT30;49136;47.416;19.402;2023-11-19T10:42:23;3.45;95.76
63051;SHT30;49136;47.416;19.402;2023-11-19T10:44:48;3.47;95.56
63051;SHT30;49136;47.416;19.402;2023-11-19T10:47:14;3.52;95.58
63051;SHT30;49136;47.416;19.402;2023-11-19T10:49:42;3.57;95.79
63051;SHT30;49136;47.416;19.402;2023-11-19T10:52:08;3.59;95.80
63051;SHT30;49136;47.416;19.402;2023-11-19T10:54:34;3.50;95.62
63051;SHT30;49136;47.416;19.402;2023-11-19T10:57:01;3.50;95.47
63051;SHT30;49136;47.416;19.402;2023-11-19T10:59:30;3.41;95.84
63051;SHT30;49136;47.416;19.402;2023-11-19T11:01:56;3.47;96.26
63051;SHT30;49136;47.416;19.402;2023-11-19T11:04:24;3.55;96.11
63051;SHT30;49136;47.416;19.402;2023-11-19T11:06:51;3.64;95.83
63051;SHT30;49136;47.416;19.402;2023-11-19T11:09:17;3.71;95.73
63051;SHT30;49136;47.416;19.402;2023-11-19T11:11:46;3.72;95.42
63051;SHT30;49136;47.416;19.402;2023-11-19T11:14:13;3.74;95.54
63051;SHT30;49136;47.416;19.402;2023-11-19T11:16:46;3.71;95.53
63051;SHT30;49136;47.416;19.402;2023-11-19T11:19:12;3.76;95.39
63051;SHT30;49136;47.416;19.402;2023-11-19T11:21:42;3.79;95.46
63051;SHT30;49136;47.416;19.402;2023-11-19T11:24:28;3.78;95.63
63051;SHT30;49136;47.416;19.402;2023-11-19T11:32:40;3.71;95.03
63051;SHT30;49136;47.416;19.402;2023-11-19T11:35:49;3.83;94.74
63051;SHT30;49136;47.416;19.402;2023-11-19T11:38:21;3.79;95.21
63051;SHT30;49136;47.416;19.402;2023-11-19T11:41:20;3.92;94.96
63051;SHT30;49136;47.416;19.402;2023-11-19T11:43:50;3.87;95.10
63051;SHT30;49136;47.416;19.402;2023-11-19T11:49:06;3.85;94.93
63051;SHT30;49136;47.416;19.402;2023-11-19T11:54:29;3.97;95.42
63051;SHT30;49136;47.416;19.402;2023-11-19T11:57:12;4.03;94.54
63051;SHT30;49136;47.416;19.402;2023-11-19T12:02:11;4.18;94.61
63051;SHT30;49136;47.416;19.402;2023-11-19T12:04:37;4.21;94.56
63051;SHT30;49136;47.416;19.402;2023-11-19T12:07:13;4.14;94.46
63051;SHT30;49136;47.416;19.402;2023-11-19T12:09:41;4.10;94.96
63051;SHT30;49136;47.416;19.402;2023-11-19T12:12:19;4.04;95.38
63051;SHT30;49136;47.416;19.402;2023-11-19T12:17:46;4.09;95.11
63051;SHT30;49136;47.416;19.402;2023-11-19T12:20:15;4.21;95.70
63051;SHT30;49136;47.416;19.402;2023-11-19T12:22:42;4.34;95.52
63051;SHT30;49136;47.416;19.402;2023-11-19T12:25:10;4.46;95.27
63051;SHT30;49136;47.416;19.402;2023-11-19T12:27:44;4.51;94.93
63051;SHT30;49136;47.416;19.402;2023-11-19T12:30:09;4.60;94.35
63051;SHT30;49136;47.416;19.402;2023-11-19T12:32:39;4.72;94.49
63051;SHT30;49136;47.416;19.402;2023-11-19T12:35:05;4.79;94.18
63051;SHT30;49136;47.416;19.402;2023-11-19T12:37:30;4.72;93.29
63051;SHT30;49136;47.416;19.402;2023-11-19T12:39:57;4.75;93.35
63051;SHT30;49136;47.416;19.402;2023-11-19T12:42:46;4.84;93.56
63051;SHT30;49136;47.416;19.402;2023-11-19T12:45:13;4.84;93.30
63051;SHT30;49136;47.416;19.402;2023-11-19T12:47:42;4.83;92.95
63051;SHT30;49136;47.416;19.402;2023-11-19T12:50:09;4.75;93.06
63051;SHT30;49136;47.416;19.402;2023-11-19T12:52:36;4.69;93.24
63051;SHT30;49136;47.416;19.402;2023-11-19T12:55:05;4.73;93.10
63051;SHT30;49136;47.416;19.402;2023-11-19T12:57:40;4.77;93.37
63051;SHT30;49136;47.416;19.402;2023-11-19T13:00:07;4.86;93.65
63051;SHT30;49136;47.416;19.402;2023-11-19T13:02:49;4.83;93.02
63051;SHT30;49136;47.416;19.402;2023-11-19T13:05:35;4.90;92.80
63051;SHT30;49136;47.416;19.402;2023-11-19T13:08:06;4.86;92.15
63051;SHT30;49136;47.416;19.402;2023-11-19T13:10:33;4.81;91.93
63051;SHT30;49136;47.416;19.402;2023-11-19T13:13:02;4.77;91.46
63051;SHT30;49136;47.416;19.402;2023-11-19T13:15:29;4.63;92.34
63051;SHT30;49136;47.416;19.402;2023-11-19T13:17:54;4.56;92.24
63051;SHT30;49136;47.416;19.402;2023-11-19T13:20:20;4.55;92.72
63051;SHT30;49136;47.416;19.402;2023-11-19T13:22:59;4.52;92.47
63051;SHT30;49136;47.416;19.402;2023-11-19T13:25:28;4.60;93.64
63051;SHT30;49136;47.416;19.402;2023-11-19T13:27:54;4.59;93.26
63051;SHT30;49136;47.416;19.402;2023-11-19T13:30:20;4.69;93.58
63051;SHT30;49136;47.416;19.402;2023-11-19T13:32:48;4.63;93.48
63051;SHT30;49136;47.416;19.402;2023-11-19T13:35:13;4.68;93.33
63051;SHT30;49136;47.416;19.402;2023-11-19T13:37:39;4.68;93.58
63051;SHT30;49136;47.416;19.402;2023-11-19T13:40:07;4.73;93.92
63051;SHT30;49136;47.416;19.402;2023-11-19T13:42:32;4.62;94.01
63051;SHT30;49136;47.416;19.402;2023-11-19T13:44:58;4.56;94.51
63051;SHT30;49136;47.416;19.402;2023-11-19T13:47:23;4.51;94.61
63051;SHT30;49136;47.416;19.402;2023-11-19T13:49:49;4.51;95.02
63051;SHT30;49136;47.416;19.402;2023-11-19T13:52:15;4.52;94.47
63051;SHT30;49136;47.416;19.402;2023-11-19T13:54:40;4.51;94.90
63051;SHT30;49136;47.416;19.402;2023-11-19T13:57:06;4.45;95.27
63051;SHT30;49136;47.416;19.402;2023-11-19T13:59:31;4.45;94.88
63051;SHT30;49136;47.416;19.402;2023-11-19T14:02:00;4.45;95.21
63051;SHT30;49136;47.416;19.402;2023-11-19T14:04:25;4.45;95.15
63051;SHT30;49136;47.416;19.402;2023-11-19T14:06:51;4.45;95.29
63051;SHT30;49136;47.416;19.402;2023-11-19T14:09:17;4.38;95.13
63051;SHT30;49136;47.416;19.402;2023-11-19T14:11:43;4.40;95.53
63051;SHT30;49136;47.416;19.402;2023-11-19T14:14:08;4.44;95.97
63051;SHT30;49136;47.416;19.402;2023-11-19T14:16:33;4.44;96.06
63051;SHT30;49136;47.416;19.402;2023-11-19T14:18:59;4.45;95.86
63051;SHT30;49136;47.416;19.402;2023-11-19T14:21:25;4.46;95.68
63051;SHT30;49136;47.416;19.402;2023-11-19T14:23:54;4.45;95.94
63051;SHT30;49136;47.416;19.402;2023-11-19T14:26:19;4.44;96.26
63051;SHT30;49136;47.416;19.402;2023-11-19T14:28:45;4.41;96.34
63051;SHT30;49136;47.416;19.402;2023-11-19T14:31:10;4.44;96.37
63051;SHT30;49136;47.416;19.402;2023-11-19T14:33:36;4.42;96.67
63051;SHT30;49136;47.416;19.402;2023-11-19T14:36:03;4.42;96.90
63051;SHT30;49136;47.416;19.402;2023-11-19T14:38:29;4.42;96.93
63051;SHT30;49136;47.416;19.402;2023-11-19T14:40:54;4.41;97.09
63051;SHT30;49136;47.416;19.402;2023-11-19T14:43:20;4.41;97.17
63051;SHT30;49136;47.416;19.402;2023-11-19T14:45:45;4.41;97.36
63051;SHT30;49136;47.416;19.402;2023-11-19T14:48:11;4.40;97.23
63051;SHT30;49136;47.416;19.402;2023-11-19T14:50:36;4.38;97.35
63051;SHT30;49136;47.416;19.402;2023-11-19T14:53:01;4.41;96.79
63051;SHT30;49136;47.416;19.402;2023-11-19T14:55:27;4.40;96.91
63051;SHT30;49136;47.416;19.402;2023-11-19T14:57:52;4.38;97.20
63051;SHT30;49136;47.416;19.402;2023-11-19T15:00:19;4.40;97.01
63051;SHT30;49136;47.416;19.402;2023-11-19T15:02:44;4.37;96.79
63051;SHT30;49136;47.416;19.402;2023-11-19T15:05:10;4.34;96.79
63051;SHT30;49136;47.416;19.402;2023-11-19T15:07:38;4.31;96.90
63051;SHT30;49136;47.416;19.402;2023-11-19T15:10:05;4.30;97.50
63051;SHT30;49136;47.416;19.402;2023-11-19T15:12:39;4.30;97.87
63051;SHT30;49136;47.416;19.402;2023-11-19T15:15:09;4.33;98.26
63051;SHT30;49136;47.416;19.402;2023-11-19T15:17:35;4.28;98.25
63051;SHT30;49136;47.416;19.402;2023-11-19T15:20:04;4.27;98.24
63051;SHT30;49136;47.416;19.402;2023-11-19T15:22:30;4.30;97.97
63051;SHT30;49136;47.416;19.402;2023-11-19T15:24:56;4.27;97.99
63051;SHT30;49136;47.416;19.402;2023-11-19T15:27:21;4.28;98.26
63051;SHT30;49136;47.416;19.402;2023-11-19T15:29:47;4.28;98.87
63051;SHT30;49136;47.416;19.402;2023-11-19T15:32:13;4.28;99.01
63051;SHT30;49136;47.416;19.402;2023-11-19T15:34:39;4.27;99.33
63051;SHT30;49136;47.416;19.402;2023-11-19T15:37:07;4.25;99.49
63051;SHT30;49136;47.416;19.402;2023-11-19T15:39:32;4.27;99.75